Time;durP1;ratioP1;P1;durP2;ratioP2;P2;SDS_P1;SDS_P2;PMS_P1;PMS_P2;Temp;Humidity;BMP_temperature;BMP_pressure;BME280_temperature;BME280_humidity;BME280_pressure;Samples;Min_cycle;Max_cycle;Signal;HPM_P1;HPM_P2
2021/06/13 00:00:13;;;;;;;5.55;2.35;;;;;;;19.76;28.64;102160.44;3614218;39;20049;-73
2021/06/13 00:02:42;;;;;;;3.25;1.92;;;;;;;19.71;28.87;102151.72;3618809;39;20163;-73
2021/06/13 00:05:12;;;;;;;5.10;2.40;;;;;;;19.69;28.61;102149.09;3596437;39;20403;-73
2021/06/13 00:07:40;;;;;;;4.07;2.10;;;;;;;19.66;28.79;102152.19;3601643;39;20028;-73
2021/06/13 00:10:10;;;;;;;4.55;2.40;;;;;;;19.65;29.16;102146.81;3591478;39;20050;-73
2021/06/13 00:12:38;;;;;;;4.88;2.13;;;;;;;19.61;29.19;102150.91;3606894;39;20057;-73
2021/06/13 00:15:09;;;;;;;4.50;2.20;;;;;;;19.60;28.76;102152.81;3606399;39;20063;-73
2021/06/13 00:17:39;;;;;;;4.47;2.40;;;;;;;19.56;28.59;102154.19;3601840;39;20051;-73
2021/06/13 00:20:10;;;;;;;5.55;2.63;;;;;;;19.54;28.74;102151.56;3600879;39;20047;-73
2021/06/13 00:22:38;;;;;;;4.40;2.30;;;;;;;19.49;29.32;102153.94;3596082;39;20044;-73
2021/06/13 00:25:08;;;;;;;4.32;2.38;;;;;;;19.49;29.26;102158.59;3602940;39;20044;-73
2021/06/13 00:27:36;;;;;;;4.85;2.70;;;;;;;19.45;29.36;102151.63;3604892;39;20048;-73
2021/06/13 00:30:06;;;;;;;5.47;2.75;;;;;;;19.43;28.62;102150.94;3605221;39;20055;-73
2021/06/13 00:32:35;;;;;;;4.47;2.42;;;;;;;19.40;28.88;102157.66;3603775;39;20052;-73
2021/06/13 00:35:05;;;;;;;4.88;2.53;;;;;;;19.40;29.31;102159.56;3608396;39;20043;-73
2021/06/13 00:37:34;;;;;;;4.95;2.80;;;;;;;19.36;29.32;102149.78;3605696;39;20051;-73
2021/06/13 00:40:03;;;;;;;4.70;2.28;;;;;;;19.33;29.23;102155.69;3603338;39;20048;-73
2021/06/13 00:42:31;;;;;;;4.28;2.33;;;;;;;19.31;29.47;102154.97;3594465;39;20048;-73
2021/06/13 00:44:59;;;;;;;5.72;2.58;;;;;;;19.29;29.21;102159.78;3597404;39;20050;-74
2021/06/13 00:47:27;;;;;;;5.47;2.60;;;;;;;19.27;29.07;102164.63;3607055;39;20048;-73
2021/06/13 00:49:55;;;;;;;5.25;2.38;;;;;;;19.24;29.72;102156.63;3597876;39;20055;-73
2021/06/13 00:52:25;;;;;;;5.53;2.47;;;;;;;19.23;29.59;102165.97;3606939;39;20039;-73
2021/06/13 00:54:56;;;;;;;4.00;1.95;;;;;;;19.17;29.39;102161.94;3598629;39;20044;-74
2021/06/13 00:57:24;;;;;;;4.40;2.50;;;;;;;19.16;29.28;102162.97;3593577;39;20059;-74
2021/06/13 00:59:52;;;;;;;5.03;2.53;;;;;;;19.15;29.42;102175.97;3599611;39;20389;-73
2021/06/13 01:02:20;;;;;;;5.93;2.83;;;;;;;19.13;29.73;102172.47;3600366;39;20055;-73
2021/06/13 01:04:49;;;;;;;5.25;2.47;;;;;;;19.13;29.86;102179.91;3604395;39;20393;-73
2021/06/13 01:07:25;;;;;;;4.45;2.40;;;;;;;19.12;29.89;102173.50;3586676;39;20085;-74
2021/06/13 01:10:02;;;;;;;5.57;2.67;;;;;;;19.10;29.58;102174.69;3594817;39;20132;-73
2021/06/13 01:12:37;;;;;;;4.55;2.60;;;;;;;19.06;29.94;102176.91;3597767;39;20047;-73
2021/06/13 01:15:08;;;;;;;4.82;2.80;;;;;;;19.05;29.32;102174.28;3599291;39;20055;-73
2021/06/13 01:17:46;;;;;;;4.07;2.70;;;;;;;19.05;30.07;102171.50;3599720;39;20054;-74
2021/06/13 01:20:21;;;;;;;4.10;2.28;;;;;;;19.01;30.20;102176.50;3603537;39;20048;-73
2021/06/13 01:23:34;;;;;;;5.20;3.00;;;;;;;18.96;30.10;102173.31;3599054;39;20418;-73
2021/06/13 01:26:22;;;;;;;5.17;2.90;;;;;;;18.92;29.87;102185.75;3579811;39;20746;-73
2021/06/13 01:28:59;;;;;;;4.60;2.95;;;;;;;18.91;29.74;102181.22;3574119;39;20284;-73
2021/06/13 01:31:33;;;;;;;5.47;2.95;;;;;;;18.88;29.85;102181.53;3595837;39;20088;-73
2021/06/13 01:34:03;;;;;;;6.47;2.97;;;;;;;18.85;30.39;102189.31;3605308;39;20063;-73
2021/06/13 01:36:37;;;;;;;5.15;2.78;;;;;;;18.82;30.33;102184.94;3598242;39;20040;-73
2021/06/13 01:39:12;;;;;;;4.82;2.97;;;;;;;18.81;30.14;102185.94;3605510;39;20035;-73
2021/06/13 01:41:42;;;;;;;5.38;2.78;;;;;;;18.77;29.93;102181.72;3595187;39;20421;-73
2021/06/13 01:44:13;;;;;;;5.32;2.80;;;;;;;18.76;30.59;102185.53;3600158;39;20044;-73
2021/06/13 01:46:44;;;;;;;4.40;2.80;;;;;;;18.73;30.32;102183.91;3616061;39;20108;-73
2021/06/13 01:49:13;;;;;;;5.60;2.85;;;;;;;18.71;30.23;102176.78;3604836;39;20432;-73
2021/06/13 01:51:43;;;;;;;5.30;2.75;;;;;;;18.69;30.33;102179.69;3595648;39;20404;-73
2021/06/13 01:54:14;;;;;;;5.70;3.30;;;;;;;18.69;30.63;102173.31;3598644;39;20047;-73
2021/06/13 01:56:45;;;;;;;5.47;2.78;;;;;;;18.67;30.74;102172.59;3587341;39;20180;-73
2021/06/13 01:59:16;;;;;;;6.00;2.72;;;;;;;18.65;30.86;102174.63;3599759;39;20083;-73
2021/06/13 02:01:51;;;;;;;6.05;3.13;;;;;;;18.62;30.57;102178.56;3589892;39;20052;-73
2021/06/13 02:04:22;;;;;;;5.05;2.80;;;;;;;18.60;30.88;102168.69;3599036;39;20046;-73
2021/06/13 02:07:28;;;;;;;4.97;2.92;;;;;;;18.53;30.65;102179.47;3608031;39;20054;-73
2021/06/13 02:09:57;;;;;;;6.97;3.00;;;;;;;18.51;30.22;102175.16;3595488;39;20056;-73
2021/06/13 02:12:37;;;;;;;5.68;3.05;;;;;;;18.50;30.81;102181.72;3596799;39;20058;-73
2021/06/13 02:15:12;;;;;;;5.30;3.10;;;;;;;18.46;30.81;102175.59;3607733;39;20090;-73
2021/06/13 02:17:46;;;;;;;4.88;2.38;;;;;;;18.42;30.55;102176.94;3598733;39;20050;-73
2021/06/13 02:20:19;;;;;;;6.07;2.80;;;;;;;18.38;30.74;102175.47;3598594;39;20050;-73
2021/06/13 02:22:48;;;;;;;5.93;3.00;;;;;;;18.34;31.00;102177.69;3605751;39;20265;-73
2021/06/13 02:25:20;;;;;;;5.45;2.83;;;;;;;18.34;30.46;102174.91;3599166;39;20327;-73
2021/06/13 02:27:52;;;;;;;5.70;2.50;;;;;;;18.34;31.04;102179.59;3598064;39;20066;-73
2021/06/13 02:30:24;;;;;;;5.35;2.97;;;;;;;18.30;30.79;102176.22;3596538;39;20047;-73
2021/06/13 02:32:56;;;;;;;5.30;2.88;;;;;;;18.29;31.32;102174.47;3599084;39;20062;-73
2021/06/13 02:35:27;;;;;;;5.65;3.15;;;;;;;18.28;30.95;102177.41;3608534;39;20047;-73
2021/06/13 02:37:57;;;;;;;6.38;3.33;;;;;;;18.24;30.77;102181.50;3599052;39;20055;-73
2021/06/13 02:40:28;;;;;;;6.03;2.70;;;;;;;18.20;30.67;102186.47;3598837;39;20040;-73
2021/06/13 02:43:00;;;;;;;5.65;2.65;;;;;;;18.15;30.80;102183.28;3608198;39;20313;-73
2021/06/13 02:45:34;;;;;;;6.38;3.08;;;;;;;18.14;31.27;102184.31;3607070;39;20080;-73
2021/06/13 02:48:02;;;;;;;4.45;2.58;;;;;;;18.12;31.33;102182.69;3607872;39;20063;-73
2021/06/13 02:50:32;;;;;;;6.07;2.92;;;;;;;18.11;30.96;102187.38;3598393;39;20076;-73
2021/06/13 02:53:06;;;;;;;5.85;3.10;;;;;;;18.11;31.02;102189.28;3596898;39;20915;-73
2021/06/13 02:55:41;;;;;;;6.10;2.88;;;;;;;18.11;31.53;102187.38;3597257;39;20039;-73
2021/06/13 02:58:20;;;;;;;4.97;2.90;;;;;;;18.08;31.53;102190.44;3591541;39;20055;-73
2021/06/13 03:00:52;;;;;;;5.35;2.88;;;;;;;18.04;31.56;102189.84;3589434;39;20051;-73
2021/06/13 03:03:21;;;;;;;6.78;3.35;;;;;;;18.01;31.27;102180.97;3588273;39;20051;-74
2021/06/13 03:05:51;;;;;;;6.40;2.90;;;;;;;17.99;31.61;102185.78;3606286;39;20043;-73
2021/06/13 03:08:20;;;;;;;5.20;3.25;;;;;;;17.95;31.67;102184.31;3598803;39;20028;-73
2021/06/13 03:10:52;;;;;;;5.45;3.17;;;;;;;17.93;31.84;102184.47;3607911;39;20054;-73
2021/06/13 03:13:25;;;;;;;7.20;2.88;;;;;;;17.90;31.60;102189.44;3605784;39;20077;-73
2021/06/13 03:15:57;;;;;;;5.65;3.28;;;;;;;17.89;31.58;102195.97;3603385;39;20048;-73
2021/06/13 03:18:28;;;;;;;9.43;3.28;;;;;;;17.86;31.47;102193.53;3603756;39;20157;-73
2021/06/13 03:20:58;;;;;;;6.30;3.10;;;;;;;17.80;31.64;102199.63;3602217;39;20101;-74
2021/06/13 03:23:31;;;;;;;6.82;3.05;;;;;;;17.78;32.10;102208.09;3604477;39;20047;-73
2021/06/13 03:26:02;;;;;;;;;;;;;;;17.47;31.92;102210.13;3605531;39;20090;-74
2021/06/13 03:28:35;;;;;;;6.45;2.80;;;;;;;17.65;31.45;102208.38;3603403;39;19940;-73
2021/06/13 03:31:06;;;;;;;7.20;2.72;;;;;;;17.66;31.62;102212.91;3604308;39;20055;-73
2021/06/13 03:33:38;;;;;;;5.20;2.30;;;;;;;17.60;31.53;102212.63;3597103;39;20071;-73
2021/06/13 03:36:09;;;;;;;5.63;2.55;;;;;;;17.56;31.98;102222.22;3596211;39;20039;-73
2021/06/13 03:38:38;;;;;;;5.15;2.90;;;;;;;17.56;31.44;102223.09;3603889;39;20047;-73
2021/06/13 03:41:10;;;;;;;6.97;2.90;;;;;;;17.55;31.50;102224.09;3600788;39;20073;-73
2021/06/13 03:43:38;;;;;;;4.93;2.67;;;;;;;17.53;32.04;102228.06;3604151;39;20051;-73
2021/06/13 03:46:13;;;;;;;6.40;2.70;;;;;;;17.52;31.78;102218.00;3601491;39;20047;-73
2021/06/13 03:48:42;;;;;;;5.35;3.08;;;;;;;17.53;31.94;102231.72;3599892;39;20128;-73
2021/06/13 03:51:12;;;;;;;5.95;3.03;;;;;;;17.52;31.80;102234.59;3603798;39;20320;-73
2021/06/13 03:53:47;;;;;;;4.97;2.55;;;;;;;17.50;32.09;102218.16;3598920;39;20404;-73
2021/06/13 03:56:18;;;;;;;5.90;3.25;;;;;;;17.51;31.95;102228.19;3603068;39;20047;-73
2021/06/13 03:58:48;;;;;;;6.03;2.78;;;;;;;17.52;32.35;102229.06;3599439;39;20083;-73
2021/06/13 04:01:20;;;;;;;5.28;2.72;;;;;;;17.52;32.18;102229.06;3611915;39;20043;-73
2021/06/13 04:03:50;;;;;;;5.55;2.60;;;;;;;17.51;31.71;102238.38;3608179;39;20132;-73
2021/06/13 04:06:21;;;;;;;6.60;2.90;;;;;;;17.50;32.07;102245.81;3600350;39;20074;-72
2021/06/13 04:08:50;;;;;;;5.88;2.90;;;;;;;17.49;32.25;102240.41;3597376;39;20024;-73
2021/06/13 04:11:20;;;;;;;5.22;2.58;;;;;;;17.50;31.76;102242.16;3610998;39;20056;-73
2021/06/13 04:13:50;;;;;;;5.43;2.92;;;;;;;17.48;32.52;102249.72;3600545;39;20051;-73
2021/06/13 04:16:22;;;;;;;5.75;2.55;;;;;;;17.48;32.47;102253.38;3608427;39;20064;-73
2021/06/13 04:18:51;;;;;;;5.72;2.70;;;;;;;17.43;32.63;102252.94;3605429;39;20050;-73
2021/06/13 04:21:21;;;;;;;4.35;2.22;;;;;;;17.43;32.36;102252.94;3603560;39;20397;-73
2021/06/13 04:23:52;;;;;;;6.68;2.95;;;;;;;17.42;32.49;102253.09;3595149;39;20058;-73
2021/06/13 04:26:40;;;;;;;6.45;2.72;;;;;;;17.36;32.07;102259.19;3608966;39;20058;-73
2021/06/13 04:29:10;;;;;;;7.05;3.00;;;;;;;17.33;32.25;102253.94;3607226;39;20059;-73
2021/06/13 04:31:40;;;;;;;4.63;2.63;;;;;;;17.30;32.60;102260.63;3611068;39;20051;-73
2021/06/13 04:34:08;;;;;;;4.72;2.78;;;;;;;17.25;32.28;102262.91;3609126;39;20086;-73
2021/06/13 04:36:37;;;;;;;4.40;2.80;;;;;;;17.21;32.83;102261.44;3611225;39;20133;-73
2021/06/13 04:39:05;;;;;;;5.93;3.05;;;;;;;17.17;32.69;102266.41;3609510;39;20035;-73
2021/06/13 04:41:40;;;;;;;5.60;2.88;;;;;;;17.14;32.56;102274.97;3596098;39;20052;-73
2021/06/13 04:44:08;;;;;;;7.50;2.60;;;;;;;17.11;32.71;102275.25;3610749;39;20055;-73
2021/06/13 04:46:37;;;;;;;7.20;2.90;;;;;;;17.09;32.76;102279.19;3610136;39;20051;-73
2021/06/13 04:49:06;;;;;;;6.13;3.15;;;;;;;17.09;32.59;102274.53;3611369;39;20055;-73
2021/06/13 04:51:37;;;;;;;6.05;3.13;;;;;;;17.05;33.00;102280.47;3608801;39;20063;-73
2021/06/13 04:54:21;;;;;;;6.05;3.00;;;;;;;17.01;33.38;102281.78;3602072;39;20043;-73
2021/06/13 04:56:59;;;;;;;5.15;3.13;;;;;;;16.95;32.79;102280.44;3611319;39;20063;-73
2021/06/13 04:59:27;;;;;;;5.90;2.97;;;;;;;16.86;32.84;102282.16;3611179;39;20052;-73
2021/06/13 05:01:55;;;;;;;6.72;3.30;;;;;;;16.83;32.95;102289.84;3600482;39;20059;-73
2021/06/13 05:04:25;;;;;;;6.43;3.00;;;;;;;16.81;33.27;102292.75;3617397;39;20355;-73
2021/06/13 05:06:53;;;;;;;8.95;3.13;;;;;;;16.76;33.15;102280.34;3614340;39;20043;-73
2021/06/13 05:09:22;;;;;;;6.18;3.22;;;;;;;16.75;33.42;102293.31;3612042;39;20306;-73
2021/06/13 05:11:50;;;;;;;7.10;2.97;;;;;;;16.76;33.56;102295.06;3610166;39;20345;-73
2021/06/13 05:14:19;;;;;;;8.20;3.20;;;;;;;16.80;33.63;102295.63;3612960;39;20062;-73
2021/06/13 05:16:47;;;;;;;6.53;3.28;;;;;;;16.85;34.04;102294.22;3612717;39;20059;-73
2021/06/13 05:19:15;;;;;;;5.47;2.83;;;;;;;16.92;34.02;102294.53;3614155;39;20046;-73
2021/06/13 05:21:45;;;;;;;6.93;3.08;;;;;;;17.05;34.28;102294.28;3608013;39;20067;-73
2021/06/13 05:25:03;;;;;;;7.22;3.08;;;;;;;17.11;33.84;102302.91;3605528;39;20050;-73
2021/06/13 05:27:31;;;;;;;6.53;2.78;;;;;;;17.22;33.92;102299.13;3607220;39;20043;-73
2021/06/13 05:30:00;;;;;;;5.50;3.08;;;;;;;17.39;34.16;102305.91;3610065;39;20047;-73
2021/06/13 05:32:28;;;;;;;6.22;3.00;;;;;;;17.52;34.13;102314.84;3617893;39;20385;-73
2021/06/13 05:34:56;;;;;;;7.45;3.08;;;;;;;17.66;34.14;102308.88;3612748;39;20354;-73
2021/06/13 05:37:26;;;;;;;7.38;3.20;;;;;;;17.82;33.88;102314.72;3608481;39;20048;-73
2021/06/13 05:39:54;;;;;;;8.50;2.88;;;;;;;17.93;33.43;102313.72;3614023;39;20119;-72
2021/06/13 05:42:22;;;;;;;5.82;2.83;;;;;;;18.04;33.14;102325.53;3609285;39;20063;-73
2021/06/13 05:44:52;;;;;;;4.78;2.53;;;;;;;18.14;32.62;102319.13;3607638;39;20039;-72
2021/06/13 05:47:21;;;;;;;5.88;2.55;;;;;;;18.24;32.67;102320.00;3609087;39;20047;-73
2021/06/13 05:49:50;;;;;;;6.82;2.90;;;;;;;18.35;32.91;102325.41;3609379;39;20293;-72
2021/06/13 05:52:19;;;;;;;5.47;2.70;;;;;;;18.42;32.63;102324.66;3613153;39;20043;-73
2021/06/13 05:54:48;;;;;;;5.00;3.08;;;;;;;18.53;32.17;102323.59;3598640;39;20055;-72
2021/06/13 05:57:17;;;;;;;6.50;2.83;;;;;;;18.58;31.93;102326.81;3606660;39;20050;-72
2021/06/13 05:59:45;;;;;;;4.97;2.47;;;;;;;18.69;31.89;102325.75;3612794;39;20059;-73
2021/06/13 06:02:13;;;;;;;7.07;2.70;;;;;;;18.78;32.37;102325.75;3596272;39;20063;-73
2021/06/13 06:04:43;;;;;;;4.78;2.60;;;;;;;18.88;32.26;102331.25;3617028;39;20047;-72
2021/06/13 06:07:12;;;;;;;7.75;2.90;;;;;;;18.99;31.83;102341.28;3603831;39;20051;-76
2021/06/13 06:09:40;;;;;;;5.97;2.47;;;;;;;19.08;31.88;102344.03;3614181;39;20061;-70
2021/06/13 06:12:12;;;;;;;4.65;2.35;;;;;;;19.20;31.20;102347.47;3588535;39;20054;-70
2021/06/13 06:14:55;;;;;;;5.50;2.67;;;;;;;19.26;31.07;102352.44;3605268;39;20382;-69
2021/06/13 06:17:24;;;;;;;6.13;2.30;;;;;;;19.30;30.42;102356.63;3598980;39;20056;-70
2021/06/13 06:19:53;;;;;;;6.10;2.60;;;;;;;19.36;30.51;102357.91;3610822;39;20040;-69
2021/06/13 06:22:45;;;;;;;4.68;2.53;;;;;;;19.37;29.85;102363.31;3609747;39;20078;-68
2021/06/13 06:25:54;;;;;;;7.30;2.63;;;;;;;19.38;29.94;102359.50;3608508;39;20046;-68
2021/06/13 06:28:38;;;;;;;4.88;2.50;;;;;;;19.37;29.60;102360.53;3608215;39;20055;-66
2021/06/13 06:31:13;;;;;;;4.07;2.10;;;;;;;19.37;30.44;102354.97;3586836;39;20053;-68
2021/06/13 06:33:41;;;;;;;4.60;2.50;;;;;;;19.41;30.17;102353.66;3597113;39;20396;-67
2021/06/13 06:36:10;;;;;;;5.28;3.00;;;;;;;19.46;30.48;102362.38;3609933;39;20040;-67
2021/06/13 06:38:38;;;;;;;4.88;2.50;;;;;;;19.52;30.46;102361.78;3611627;39;20059;-71
2021/06/13 06:41:06;;;;;;;6.47;2.72;;;;;;;19.59;30.65;102359.28;3607261;39;20058;-69
2021/06/13 06:47:28;;;;;;;5.43;2.42;;;;;;;19.73;29.90;102369.00;3605334;39;20060;-67
2021/06/13 06:49:57;;;;;;;6.13;3.05;;;;;;;19.82;30.14;102384.72;3605498;39;20062;-68
2021/06/13 06:52:27;;;;;;;5.65;2.55;;;;;;;19.88;29.47;102378.53;3608977;39;20144;-68
2021/06/13 06:54:56;;;;;;;5.15;2.58;;;;;;;19.97;29.22;102387.81;3591276;39;20112;-67
2021/06/13 06:57:24;;;;;;;6.53;2.38;;;;;;;20.01;29.58;102384.56;3607777;39;20059;-68
2021/06/13 06:59:54;;;;;;;4.75;2.35;;;;;;;20.08;28.89;102395.94;3607226;39;20074;-68
2021/06/13 07:02:22;;;;;;;5.55;2.40;;;;;;;20.10;29.65;102393.84;3605098;39;20052;-78
2021/06/13 07:04:50;;;;;;;5.53;2.80;;;;;;;20.15;29.20;102399.81;3607686;39;20050;-67
2021/06/13 07:07:19;;;;;;;4.05;2.20;;;;;;;20.20;29.36;102398.31;3608807;39;20408;-67
2021/06/13 07:09:47;;;;;;;4.57;2.35;;;;;;;20.25;28.87;102395.94;3609095;39;20040;-68
2021/06/13 07:12:16;;;;;;;5.88;2.38;;;;;;;20.31;28.89;102395.34;3605219;39;20047;-71
2021/06/13 07:14:44;;;;;;;3.67;2.03;;;;;;;20.37;29.05;102396.59;3605305;39;20131;-69
2021/06/13 07:17:14;;;;;;;5.18;2.28;;;;;;;20.42;28.34;102399.75;3602396;39;20128;-68
2021/06/13 07:19:42;;;;;;;4.38;2.40;;;;;;;20.44;28.40;102402.38;3606760;39;20143;-69
2021/06/13 07:22:11;;;;;;;4.97;2.42;;;;;;;20.47;28.35;102402.94;3611491;39;20047;-69
2021/06/13 07:24:40;;;;;;;4.93;2.40;;;;;;;20.48;27.77;102404.69;3608346;39;20043;-69
2021/06/13 07:27:08;;;;;;;3.75;2.10;;;;;;;20.51;27.95;102398.78;3612015;39;20573;-68
2021/06/13 07:29:36;;;;;;;5.32;2.35;;;;;;;20.55;28.59;102399.34;3607932;39;20418;-75
2021/06/13 07:32:31;;;;;;;4.60;2.50;;;;;;;20.56;28.21;102401.09;3605153;39;20324;-70
2021/06/13 07:35:00;;;;;;;4.75;2.33;;;;;;;20.61;28.28;102395.91;3608382;39;20039;-71
2021/06/13 07:37:28;;;;;;;4.65;2.30;;;;;;;20.67;28.55;102389.69;3600790;39;20093;-72
2021/06/13 07:39:57;;;;;;;4.70;2.40;;;;;;;20.73;28.57;102400.22;3614077;39;20078;-71
2021/06/13 07:42:25;;;;;;;4.47;2.20;;;;;;;20.78;27.88;102399.69;3607414;39;20047;-72
2021/06/13 07:44:53;;;;;;;5.75;2.38;;;;;;;20.83;27.97;102406.50;3599586;39;20132;-69
2021/06/13 07:47:22;;;;;;;5.35;2.22;;;;;;;20.88;28.03;102409.69;3615137;39;20352;-68
2021/06/13 07:49:52;;;;;;;4.63;2.20;;;;;;;20.95;28.17;102407.16;3606462;39;20051;-75
2021/06/13 07:52:21;;;;;;;4.40;2.20;;;;;;;20.98;27.69;102415.19;3604002;39;20047;-67
2021/06/13 07:54:49;;;;;;;5.57;2.65;;;;;;;21.04;27.71;102414.53;3606683;39;20047;-73
2021/06/13 07:57:18;;;;;;;4.70;2.58;;;;;;;21.11;27.88;102415.63;3609303;39;20404;-72
2021/06/13 07:59:46;;;;;;;4.88;2.17;;;;;;;21.18;27.81;102424.19;3612820;39;20067;-73
2021/06/13 08:06:15;;;;;;;4.80;1.95;;;;;;;21.29;28.10;102422.00;3611360;39;20306;-72
2021/06/13 08:08:43;;;;;;;4.63;2.30;;;;;;;21.37;27.73;102423.94;3607574;39;20047;-72
2021/06/13 08:11:12;;;;;;;4.45;2.58;;;;;;;21.42;27.38;102418.75;3596454;39;20112;-72
2021/06/13 08:13:40;;;;;;;4.88;2.40;;;;;;;21.48;26.98;102426.47;3606472;39;20040;-72
2021/06/13 08:16:08;;;;;;;5.50;2.20;;;;;;;21.53;27.17;102423.16;3607977;39;20039;-73
2021/06/13 08:18:38;;;;;;;5.80;2.40;;;;;;;21.60;27.00;102422.34;3609620;39;20124;-72
2021/06/13 08:21:06;;;;;;;4.85;2.33;;;;;;;21.66;26.73;102420.81;3598180;39;20391;-73
2021/06/13 08:23:38;;;;;;;5.30;2.50;;;;;;;21.71;26.42;102422.06;3608838;39;20044;-73
2021/06/13 08:26:07;;;;;;;5.32;2.20;;;;;;;21.74;26.75;102418.03;3608641;39;20052;-72
2021/06/13 08:28:35;;;;;;;5.13;2.47;;;;;;;21.80;26.51;102423.84;3609921;39;20043;-72
2021/06/13 08:31:04;;;;;;;5.65;2.22;;;;;;;21.86;26.54;102421.41;3605799;39;20333;-73
2021/06/13 08:33:32;;;;;;;5.13;2.67;;;;;;;21.92;26.70;102412.34;3608838;39;20091;-72
2021/06/13 08:36:00;;;;;;;4.78;2.45;;;;;;;21.97;26.14;102412.75;3598686;39;20048;-72
2021/06/13 08:38:29;;;;;;;5.07;2.30;;;;;;;22.00;26.30;102416.03;3614399;39;20303;-73
2021/06/13 08:40:58;;;;;;;5.43;2.50;;;;;;;22.06;26.00;102414.50;3601798;39;20578;-73
2021/06/13 08:43:27;;;;;;;6.57;2.70;;;;;;;22.06;25.87;102420.09;3599154;39;20040;-72
2021/06/13 08:45:59;;;;;;;4.65;2.22;;;;;;;22.09;25.35;102430.88;3606752;39;20440;-71
2021/06/13 08:48:29;;;;;;;5.75;2.33;;;;;;;22.07;25.86;102430.16;3608217;39;20332;-71
2021/06/13 08:51:00;;;;;;;5.50;2.35;;;;;;;22.10;25.65;102418.69;3615359;39;20046;-70
2021/06/13 08:53:28;;;;;;;4.60;2.20;;;;;;;22.12;25.82;102428.63;3600811;39;20048;-71
2021/06/13 08:55:58;;;;;;;4.68;2.30;;;;;;;22.17;25.42;102428.09;3602547;39;20312;-71
2021/06/13 08:58:35;;;;;;;5.43;2.35;;;;;;;22.23;25.14;102424.69;3609492;39;20059;-70
2021/06/13 09:01:05;;;;;;;5.30;2.28;;;;;;;22.26;25.84;102420.66;3613808;39;20035;-71
2021/06/13 09:03:34;;;;;;;4.10;2.60;;;;;;;22.29;25.63;102409.19;3603667;39;20059;-71
2021/06/13 09:06:02;;;;;;;4.65;2.45;;;;;;;22.33;25.57;102410.56;3617950;39;20117;-70
2021/06/13 09:08:35;;;;;;;5.68;2.15;;;;;;;22.40;24.68;102411.59;3605858;39;20043;-71
2021/06/13 09:11:05;;;;;;;3.85;2.30;;;;;;;22.42;25.28;102417.88;3607010;39;20051;-71
2021/06/13 09:13:36;;;;;;;4.35;2.63;;;;;;;22.45;25.07;102407.28;3611297;39;20043;-71
2021/06/13 09:16:07;;;;;;;3.88;2.15;;;;;;;22.49;25.57;102407.78;3602191;39;20051;-71
2021/06/13 09:18:37;;;;;;;4.85;2.10;;;;;;;22.56;25.07;102415.28;3603926;39;20054;-70
2021/06/13 09:21:08;;;;;;;5.15;2.08;;;;;;;22.61;25.24;102414.78;3610315;39;20044;-70
2021/06/13 09:23:39;;;;;;;5.72;2.17;;;;;;;22.69;25.66;102413.91;3611521;39;20055;-71
2021/06/13 09:26:12;;;;;;;5.90;2.50;;;;;;;22.75;25.08;102407.59;3610231;39;20139;-71
2021/06/13 09:28:41;;;;;;;4.28;2.15;;;;;;;22.80;25.38;102408.84;3616846;39;20071;-72
2021/06/13 09:31:15;;;;;;;4.28;2.22;;;;;;;22.91;24.78;102414.06;3609376;39;20141;-73
2021/06/13 09:33:50;;;;;;;3.95;2.00;;;;;;;22.99;25.12;102410.41;3609882;39;20042;-73
2021/06/13 09:36:23;;;;;;;5.30;2.58;;;;;;;23.04;25.14;102410.75;3604819;39;20060;-71
2021/06/13 09:39:15;;;;;;;5.65;2.17;;;;;;;23.14;25.07;102413.34;3610732;39;20046;-69
2021/06/13 09:41:59;;;;;;;;;;;;;;;;;;;;;
2021/06/13 09:44:28;;;;;;;4.82;2.40;;;;;;;23.30;24.78;102405.78;3609038;39;20075;-72
2021/06/13 09:47:03;;;;;;;4.57;2.40;;;;;;;23.39;24.33;102395.47;3609204;39;20631;-70
2021/06/13 09:49:44;;;;;;;5.43;2.25;;;;;;;23.49;23.81;102406.47;3607127;39;20059;-72
2021/06/13 09:52:13;;;;;;;4.05;2.30;;;;;;;23.51;24.47;102407.16;3596248;39;20069;-71
2021/06/13 09:54:42;;;;;;;4.65;2.13;;;;;;;23.59;24.26;102402.41;3612416;39;20319;-73
2021/06/13 09:57:12;;;;;;;4.90;2.33;;;;;;;23.67;24.04;102405.16;3611734;39;20083;-72
2021/06/13 09:59:40;;;;;;;4.32;2.22;;;;;;;23.71;24.15;102408.47;3598940;39;20048;-72
2021/06/13 10:02:09;;;;;;;5.10;2.30;;;;;;;23.75;23.85;102403.38;3604508;39;20300;-71
2021/06/13 10:04:40;;;;;;;3.67;2.08;;;;;;;23.79;23.98;102404.78;3608125;39;20382;-71
2021/06/13 10:07:26;;;;;;;3.80;2.20;;;;;;;23.81;23.49;102411.91;3600745;39;20055;-74
2021/06/13 10:09:55;;;;;;;4.80;2.20;;;;;;;23.82;23.60;102401.59;3611784;39;20099;-72
2021/06/13 10:12:26;;;;;;;4.75;2.20;;;;;;;23.86;23.49;102400.19;3611122;39;20070;-71
2021/06/13 10:14:55;;;;;;;4.90;2.40;;;;;;;23.85;23.49;102402.09;3599013;39;20055;-72
2021/06/13 10:17:32;;;;;;;4.05;1.98;;;;;;;23.92;23.21;102405.03;3606535;39;20066;-69
2021/06/13 10:20:01;;;;;;;4.35;2.03;;;;;;;23.92;23.50;102402.25;3616309;39;20068;-72
2021/06/13 10:22:30;;;;;;;4.18;2.35;;;;;;;23.95;23.44;102401.88;3609327;39;20058;-71
2021/06/13 10:24:59;;;;;;;6.30;2.40;;;;;;;24.00;23.43;102405.84;3610437;39;20446;-70
2021/06/13 10:27:29;;;;;;;3.55;2.10;;;;;;;24.06;23.44;102401.47;3609076;39;20074;-69
2021/06/13 10:29:58;;;;;;;6.07;2.45;;;;;;;24.09;23.23;102403.91;3612675;39;20090;-72
2021/06/13 10:32:27;;;;;;;5.97;2.25;;;;;;;24.14;23.23;102398.63;3619413;39;20127;-70
2021/06/13 10:34:58;;;;;;;7.05;2.80;;;;;;;24.23;23.32;102400.31;3612858;39;20039;-68
2021/06/13 10:37:28;;;;;;;5.07;2.38;;;;;;;24.25;23.33;102400.13;3599728;39;20048;-69
2021/06/13 10:39:58;;;;;;;5.55;2.63;;;;;;;24.32;22.78;102393.59;3607147;39;20062;-73
2021/06/13 10:42:32;;;;;;;4.82;2.38;;;;;;;24.36;22.80;102394.13;3607859;39;20434;-71
2021/06/13 10:45:04;;;;;;;4.68;2.30;;;;;;;24.38;22.80;102392.84;3611385;39;20031;-70
2021/06/13 10:47:38;;;;;;;5.18;2.40;;;;;;;24.41;22.83;102397.22;3598853;39;20039;-70
2021/06/13 10:50:10;;;;;;;5.75;2.35;;;;;;;24.44;23.07;102399.66;3598874;39;20415;-70
2021/06/13 10:52:39;;;;;;;5.18;2.25;;;;;;;24.45;23.13;102399.44;3610588;39;20055;-71
2021/06/13 10:55:09;;;;;;;4.30;2.30;;;;;;;24.54;22.88;102407.78;3605622;39;20312;-70
2021/06/13 10:57:44;;;;;;;5.68;2.10;;;;;;;24.62;22.75;102404.94;3614652;39;20061;-72
2021/06/13 11:00:31;;;;;;;6.25;2.55;;;;;;;24.63;22.35;102404.72;3613711;39;20059;-71
2021/06/13 11:03:00;;;;;;;4.90;2.55;;;;;;;24.66;22.90;102397.91;3607362;39;20438;-77
2021/06/13 11:05:50;;;;;;;6.00;2.65;;;;;;;24.71;22.69;102395.41;3602234;39;20047;-75
2021/06/13 11:08:18;;;;;;;4.82;2.47;;;;;;;24.74;22.78;102393.09;3606443;39;20042;-73
2021/06/13 11:10:48;;;;;;;6.63;2.80;;;;;;;24.79;22.79;102387.81;3616604;39;20079;-74
2021/06/13 11:13:24;;;;;;;5.55;2.60;;;;;;;24.89;21.67;102383.88;3590503;39;20278;-73
2021/06/13 11:16:04;;;;;;;4.32;2.40;;;;;;;24.93;21.84;102380.50;3601865;39;20393;-71
2021/06/13 11:18:40;;;;;;;10.38;2.65;;;;;;;24.94;21.98;102375.78;3589499;40;20055;-71
2021/06/13 11:21:23;;;;;;;5.88;2.47;;;;;;;24.98;21.71;102383.59;3595551;39;20370;-73
2021/06/13 11:23:55;;;;;;;4.88;2.20;;;;;;;25.04;22.15;102377.22;3608766;39;20047;-71
2021/06/13 11:26:40;;;;;;;6.95;2.60;;;;;;;25.08;21.67;102372.13;3607454;39;20035;-74
2021/06/13 11:29:14;;;;;;;5.88;2.33;;;;;;;25.17;21.79;102379.38;3598752;40;20048;-73
2021/06/13 11:31:52;;;;;;;4.93;2.33;;;;;;;25.23;21.87;102377.72;3607395;39;20055;-72
2021/06/13 11:34:22;;;;;;;6.35;2.67;;;;;;;25.25;22.29;102367.25;3612023;39;20067;-72
2021/06/13 11:36:51;;;;;;;5.38;2.47;;;;;;;25.30;22.31;102368.38;3612402;39;20370;-72
2021/06/13 11:39:31;;;;;;;5.38;2.63;;;;;;;25.39;21.71;102358.81;3614595;39;20088;-72
2021/06/13 11:42:11;;;;;;;4.85;2.28;;;;;;;25.45;21.95;102362.75;3610554;39;20047;-72
2021/06/13 11:44:46;;;;;;;4.55;2.25;;;;;;;25.50;21.88;102368.66;3607042;39;20294;-72
2021/06/13 11:47:37;;;;;;;4.53;2.15;;;;;;;25.52;21.59;102372.16;3610010;39;20051;-71
2021/06/13 11:50:13;;;;;;;5.25;2.30;;;;;;;25.61;21.85;102368.16;3613706;39;20081;-71
2021/06/13 11:52:59;;;;;;;6.30;2.47;;;;;;;25.67;21.87;102360.91;3613593;39;20055;-72
2021/06/13 11:56:00;;;;;;;5.60;2.45;;;;;;;25.69;21.81;102354.03;3610245;39;20044;-71